Oakdale, New York
Current Conditions -  °F | °C
As of 3:38 PM on Monday 24 Nov 2014 (Local Time) from KISP Reporting Station
Haze Haze  
Wind Chill: 58°   Ceiling: 200
Heat Index: 58°   Visibility: 1mi
Dew Point: 56°   Wind: 18mph
Humidity: 93%   Direction: 190°S
Pressure: 29.61"   Gusts: 28mph
Location:  40.74°N, 73.13°W
Report Text: KISP 242038Z 19016G24KT 1SM R06/P6000FT BR OVC002 14/13 A2961 RMK AO2 PK WND 20027/2026 SFC VIS 3 T01440133
Loading
Personal Weather Stations






























Interactive Weather Map New forecast layout! Learn more

10-Day Weather Forecast

Advertisements
Track Severe Weather on mobile